Time;durP1;ratioP1;P1;durP2;ratioP2;P2;SDS_P1;SDS_P2;PMS_P1;PMS_P2;Temp;Humidity;BMP_temperature;BMP_pressure;BME280_temperature;BME280_humidity;BME280_pressure;Samples;Min_cycle;Max_cycle;Signal;HPM_P1;HPM_P2
2022/11/21 00:01:27;;;;;;;5.85;2.35;;;13.00;99.90;;;;;;5044260;28;20064;-73
2022/11/21 00:03:55;;;;;;;2.05;1.10;;;13.00;99.90;;;;;;5049513;28;20044;-73
2022/11/21 00:06:22;;;;;;;3.05;1.25;;;12.90;99.90;;;;;;5080918;28;20127;-74
2022/11/21 00:08:50;;;;;;;1.73;1.20;;;12.90;99.90;;;;;;5069543;28;20102;-73
2022/11/21 00:11:17;;;;;;;3.78;1.90;;;12.90;99.90;;;;;;5067995;28;20470;-75
2022/11/21 00:13:45;;;;;;;3.17;1.45;;;12.90;99.90;;;;;;5079945;28;20044;-73
2022/11/21 00:16:14;;;;;;;3.65;1.13;;;12.80;99.90;;;;;;5067475;28;20482;-73
2022/11/21 00:18:42;;;;;;;2.97;1.20;;;12.70;99.90;;;;;;5080617;28;20560;-74
2022/11/21 00:21:19;;;;;;;1.38;1.20;;;12.80;99.90;;;;;;5071470;28;20086;-74
2022/11/21 00:23:47;;;;;;;5.00;1.30;;;12.70;99.90;;;;;;5034904;28;20155;-75
2022/11/21 00:26:15;;;;;;;1.88;1.02;;;12.70;99.90;;;;;;5061559;28;20048;-73
2022/11/21 00:28:43;;;;;;;4.55;1.83;;;12.70;99.90;;;;;;5069707;28;20097;-74
2022/11/21 00:31:22;;;;;;;1.98;1.40;;;12.70;99.90;;;;;;5064347;28;20052;-74
2022/11/21 00:33:49;;;;;;;1.88;1.17;;;12.70;99.90;;;;;;5052579;28;20417;-74
2022/11/21 00:36:17;;;;;;;1.75;1.25;;;12.70;99.90;;;;;;5086484;28;20092;-75
2022/11/21 00:38:44;;;;;;;1.90;1.05;;;12.60;99.90;;;;;;5053258;28;20040;-74
2022/11/21 00:41:12;;;;;;;1.65;1.15;;;12.60;99.90;;;;;;5070778;28;20036;-74
2022/11/21 00:43:39;;;;;;;2.72;1.88;;;12.60;99.90;;;;;;5053416;28;20555;-75
2022/11/21 00:46:06;;;;;;;3.50;1.20;;;12.50;99.90;;;;;;5063301;28;20538;-74
2022/11/21 00:48:34;;;;;;;5.05;1.30;;;12.60;99.90;;;;;;5047128;28;20040;-74
2022/11/21 00:51:01;;;;;;;2.05;1.27;;;12.50;99.90;;;;;;5094491;28;20093;-75
2022/11/21 00:53:29;;;;;;;3.35;1.13;;;12.40;99.90;;;;;;5068602;28;20048;-73
2022/11/21 00:55:57;;;;;;;1.98;1.10;;;12.40;99.90;;;;;;5068293;28;20121;-74
2022/11/21 00:58:25;;;;;;;1.70;1.00;;;12.30;99.90;;;;;;5074488;28;20135;-74
2022/11/21 01:01:11;;;;;;;3.45;1.10;;;12.40;99.90;;;;;;5053639;28;20048;-75
2022/11/21 01:03:39;;;;;;;3.33;1.42;;;12.30;99.90;;;;;;5095148;28;20460;-74
2022/11/21 01:06:10;;;;;;;2.10;1.00;;;12.40;99.90;;;;;;5026975;28;20040;-73
2022/11/21 01:08:39;;;;;;;2.35;1.15;;;12.40;99.90;;;;;;5077207;28;20078;-73
2022/11/21 01:11:18;;;;;;;3.28;1.55;;;12.30;99.90;;;;;;5052726;28;20066;-73
2022/11/21 01:13:47;;;;;;;3.10;1.45;;;12.30;99.90;;;;;;5065333;28;20142;-74
2022/11/21 01:16:17;;;;;;;3.03;1.40;;;12.30;99.90;;;;;;5050791;28;20379;-74
2022/11/21 01:18:45;;;;;;;3.92;1.50;;;12.30;99.90;;;;;;5068994;28;20032;-74
2022/11/21 01:21:28;;;;;;;3.17;1.33;;;12.30;99.90;;;;;;5081765;28;20123;-73
2022/11/21 01:23:58;;;;;;;4.70;1.27;;;12.40;99.90;;;;;;5068226;28;20051;-74
2022/11/21 01:26:28;;;;;;;3.85;1.55;;;12.40;99.90;;;;;;5096737;28;20148;-75
2022/11/21 01:28:59;;;;;;;3.72;1.58;;;12.40;99.90;;;;;;5068872;28;20033;-73
2022/11/21 01:31:28;;;;;;;2.58;1.00;;;12.20;99.90;;;;;;5028982;28;20048;-72
2022/11/21 01:33:57;;;;;;;6.45;1.40;;;12.20;99.90;;;;;;5084856;28;20498;-73
2022/11/21 01:36:31;;;;;;;3.10;1.42;;;12.20;99.90;;;;;;5068633;28;20232;-74
2022/11/21 01:39:01;;;;;;;2.80;1.05;;;12.10;99.90;;;;;;5054959;28;20305;-73
2022/11/21 01:41:32;;;;;;;1.30;1.15;;;12.00;99.90;;;;;;5065100;28;20065;-74
2022/11/21 01:44:32;;;;;;;1.95;1.35;;;12.00;99.90;;;;;;5073637;28;20399;-74
2022/11/21 01:46:59;;;;;;;3.97;1.20;;;12.00;99.90;;;;;;5084779;28;20142;-73
2022/11/21 01:49:31;;;;;;;15.52;1.55;;;12.00;99.90;;;;;;5073480;28;20040;-73
2022/11/21 01:52:01;;;;;;;1.50;1.27;;;12.00;99.90;;;;;;5081840;28;20044;-73
2022/11/21 01:54:49;;;;;;;1.80;1.33;;;12.00;99.90;;;;;;5080312;28;20068;-73
2022/11/21 01:57:37;;;;;;;4.50;1.70;;;12.10;99.90;;;;;;5071280;28;20044;-73
2022/11/21 02:00:23;;;;;;;1.80;1.15;;;12.10;99.90;;;;;;5084200;28;20039;-73
2022/11/21 02:02:54;;;;;;;1.65;1.10;;;12.10;99.90;;;;;;5067784;28;20134;-74
2022/11/21 02:05:25;;;;;;;2.28;1.30;;;12.20;99.90;;;;;;5076322;28;20066;-73
2022/11/21 02:07:56;;;;;;;3.03;1.63;;;12.10;99.90;;;;;;5055728;28;20046;-73
2022/11/21 02:10:24;;;;;;;1.88;1.00;;;12.10;99.90;;;;;;5061862;28;20126;-74
2022/11/21 02:12:54;;;;;;;2.65;1.35;;;12.10;99.90;;;;;;5045902;28;20040;-73
2022/11/21 02:16:03;;;;;;;1.33;1.17;;;12.10;99.90;;;;;;5065777;28;20047;-74
2022/11/21 02:18:30;;;;;;;3.17;1.00;;;12.10;99.90;;;;;;5047415;28;20091;-74
2022/11/21 02:21:08;;;;;;;2.00;1.65;;;12.10;99.90;;;;;;5080946;28;20040;-73
2022/11/21 02:23:49;;;;;;;5.75;1.73;;;12.20;99.90;;;;;;5035934;28;20540;-73
2022/11/21 02:26:17;;;;;;;3.75;1.15;;;12.20;99.90;;;;;;5069570;28;20044;-73
2022/11/21 02:28:44;;;;;;;3.92;0.90;;;12.20;99.90;;;;;;5068296;28;20032;-73
2022/11/21 02:31:12;;;;;;;4.47;1.15;;;12.10;99.90;;;;;;5051148;28;20076;-73
2022/11/21 02:33:39;;;;;;;1.30;0.90;;;12.10;99.90;;;;;;5050877;28;20062;-73
2022/11/21 02:36:38;;;;;;;3.08;1.15;;;12.20;99.90;;;;;;5067572;28;20040;-73
2022/11/21 02:39:19;;;;;;;2.83;1.20;;;12.20;99.90;;;;;;5049258;28;20493;-73
2022/11/21 02:42:22;;;;;;;2.72;1.08;;;12.20;99.90;;;;;;5050826;28;20060;-73
2022/11/21 02:45:02;;;;;;;2.90;1.13;;;12.20;99.90;;;;;;5034453;28;20363;-73
2022/11/21 02:47:31;;;;;;;1.35;0.88;;;12.10;99.90;;;;;;5052776;28;20101;-73
2022/11/21 02:50:02;;;;;;;2.10;1.13;;;12.00;99.90;;;;;;5036285;28;20141;-73
2022/11/21 02:52:29;;;;;;;1.10;0.80;;;12.00;99.90;;;;;;5068658;28;20572;-73
2022/11/21 02:54:57;;;;;;;1.80;1.08;;;12.00;99.90;;;;;;5069790;28;20051;-73
2022/11/21 02:57:24;;;;;;;2.47;0.93;;;12.00;99.90;;;;;;5087709;28;20067;-72
2022/11/21 02:59:52;;;;;;;1.40;0.82;;;12.00;99.90;;;;;;5052313;28;20113;-73
2022/11/21 03:02:19;;;;;;;2.08;1.27;;;12.10;99.90;;;;;;5069369;28;20510;-75
2022/11/21 03:04:47;;;;;;;1.88;1.00;;;12.10;99.90;;;;;;5052808;28;20135;-73
2022/11/21 03:07:14;;;;;;;1.30;1.00;;;12.10;99.90;;;;;;5087819;28;20505;-73
2022/11/21 03:09:42;;;;;;;3.97;1.35;;;12.00;99.90;;;;;;5052503;28;20047;-74
2022/11/21 03:12:10;;;;;;;2.42;1.10;;;12.00;99.90;;;;;;5036546;28;20118;-73
2022/11/21 03:14:37;;;;;;;2.00;0.90;;;12.00;99.90;;;;;;5052439;28;20555;-73
2022/11/21 03:17:05;;;;;;;3.17;1.13;;;11.90;99.90;;;;;;5052609;28;20142;-73
2022/11/21 03:19:32;;;;;;;2.25;0.90;;;11.90;99.90;;;;;;5069406;28;20477;-73
2022/11/21 03:22:00;;;;;;;1.52;0.90;;;11.90;99.90;;;;;;5069645;28;20173;-73
2022/11/21 03:24:27;;;;;;;1.02;0.77;;;12.00;99.90;;;;;;5069360;28;20089;-73
2022/11/21 03:26:54;;;;;;;0.95;0.82;;;12.00;99.90;;;;;;5053014;28;20462;-73
2022/11/21 03:29:22;;;;;;;2.45;1.27;;;12.10;99.90;;;;;;5087137;28;20055;-73
2022/11/21 03:31:49;;;;;;;2.47;0.80;;;12.10;99.90;;;;;;5069133;28;20089;-73
2022/11/21 03:34:17;;;;;;;1.27;0.82;;;12.10;99.90;;;;;;5087736;28;20387;-74
2022/11/21 03:36:45;;;;;;;3.58;1.20;;;12.10;99.90;;;;;;5068673;28;20103;-73
2022/11/21 03:39:12;;;;;;;1.25;0.85;;;12.10;99.90;;;;;;5086049;28;20040;-72
2022/11/21 03:41:40;;;;;;;2.05;1.45;;;12.10;99.90;;;;;;5053087;28;20090;-73
2022/11/21 03:44:09;;;;;;;0.82;0.82;;;12.20;99.90;;;;;;5035498;28;20060;-73
2022/11/21 03:46:39;;;;;;;1.05;0.68;;;12.20;99.90;;;;;;5032112;28;20065;-74
2022/11/21 03:49:08;;;;;;;1.02;0.80;;;12.30;99.90;;;;;;5051629;28;20056;-73
2022/11/21 03:51:36;;;;;;;3.47;0.88;;;12.20;99.90;;;;;;5036124;28;20051;-73
2022/11/21 03:54:04;;;;;;;1.40;0.75;;;12.20;99.90;;;;;;5052991;28;20048;-73
2022/11/21 03:56:32;;;;;;;1.27;1.10;;;12.20;99.90;;;;;;5052746;28;20053;-73
2022/11/21 03:59:00;;;;;;;2.22;0.98;;;12.20;99.90;;;;;;5069058;28;21352;-73
2022/11/21 04:01:28;;;;;;;2.45;0.80;;;12.10;99.90;;;;;;5049645;28;20107;-74
2022/11/21 04:03:58;;;;;;;2.85;1.55;;;12.10;99.90;;;;;;5049590;28;20041;-74
2022/11/21 04:06:26;;;;;;;2.95;1.38;;;11.80;99.90;;;;;;5032716;28;20048;-73
2022/11/21 04:08:53;;;;;;;2.33;0.98;;;11.50;99.90;;;;;;5032935;28;20135;-73
2022/11/21 04:11:23;;;;;;;2.13;1.33;;;11.50;99.90;;;;;;5048976;28;20491;-73
2022/11/21 04:13:51;;;;;;;1.23;0.88;;;11.30;99.90;;;;;;5032614;28;20065;-73
2022/11/21 04:16:19;;;;;;;4.13;1.40;;;11.40;99.90;;;;;;5050564;28;20475;-73
2022/11/21 04:18:46;;;;;;;1.35;0.85;;;11.50;99.90;;;;;;5032428;28;20047;-73
2022/11/21 04:21:14;;;;;;;3.15;1.55;;;11.60;99.90;;;;;;5068071;28;20418;-73
2022/11/21 04:23:41;;;;;;;3.53;0.90;;;11.60;99.90;;;;;;5068903;28;20044;-73
2022/11/21 04:26:09;;;;;;;2.17;0.90;;;11.60;99.90;;;;;;5052434;28;20074;-73
2022/11/21 04:28:37;;;;;;;0.98;0.73;;;11.60;99.90;;;;;;5068619;28;20036;-73
2022/11/21 04:31:06;;;;;;;6.10;1.25;;;11.70;99.90;;;;;;5068812;28;20048;-73
2022/11/21 04:33:36;;;;;;;4.40;2.40;;;11.70;99.90;;;;;;5069106;28;20064;-73
2022/11/21 04:36:04;;;;;;;3.35;1.23;;;11.80;99.90;;;;;;5068450;28;20044;-73
2022/11/21 04:38:32;;;;;;;3.58;1.48;;;11.70;99.90;;;;;;5051144;28;20097;-73
2022/11/21 04:40:59;;;;;;;1.77;1.05;;;11.70;99.90;;;;;;5068977;28;20040;-73
2022/11/21 04:43:27;;;;;;;2.75;1.50;;;11.70;99.90;;;;;;5068278;28;20044;-73
2022/11/21 04:45:54;;;;;;;2.78;1.27;;;11.70;99.90;;;;;;5051350;28;20497;-73
2022/11/21 04:48:21;;;;;;;1.45;0.63;;;11.70;99.90;;;;;;5051573;28;20148;-73
2022/11/21 04:50:49;;;;;;;2.85;1.00;;;11.70;99.90;;;;;;5050934;28;20102;-73
2022/11/21 04:53:16;;;;;;;3.00;0.90;;;11.70;99.90;;;;;;5068401;28;20079;-74
2022/11/21 04:55:44;;;;;;;1.50;1.13;;;11.70;99.90;;;;;;5069642;28;20041;-73
2022/11/21 04:58:11;;;;;;;1.13;0.80;;;11.60;99.90;;;;;;5068079;28;20055;-73
2022/11/21 05:00:39;;;;;;;2.33;1.30;;;11.50;99.90;;;;;;5058159;28;20194;-73
2022/11/21 05:03:06;;;;;;;1.33;1.10;;;11.40;99.90;;;;;;5048180;28;20075;-73
2022/11/21 05:05:34;;;;;;;1.48;1.20;;;11.40;99.90;;;;;;5048102;28;20057;-73
2022/11/21 05:08:01;;;;;;;2.90;1.83;;;11.40;99.90;;;;;;5047672;28;20495;-73
2022/11/21 05:10:29;;;;;;;2.15;1.17;;;11.40;99.90;;;;;;5043128;28;20808;-74
2022/11/21 05:15:45;;;;;;;1.67;0.88;;;11.40;99.90;;;;;;5052044;28;20044;-73
2022/11/21 05:18:12;;;;;;;1.70;0.70;;;11.20;99.90;;;;;;5051457;28;20044;-73
2022/11/21 05:20:39;;;;;;;1.83;1.38;;;11.20;99.90;;;;;;5030422;28;20048;-74
2022/11/21 05:23:07;;;;;;;1.60;1.23;;;11.40;99.90;;;;;;5048347;28;20057;-73
2022/11/21 05:25:34;;;;;;;1.90;1.00;;;11.50;99.90;;;;;;5047186;28;20049;-73
2022/11/21 05:28:02;;;;;;;3.10;1.48;;;11.60;99.90;;;;;;5048904;28;20053;-73
2022/11/21 05:30:29;;;;;;;2.90;1.20;;;11.60;99.90;;;;;;5048008;28;20521;-73
2022/11/21 05:32:57;;;;;;;1.83;1.38;;;11.70;99.90;;;;;;5030753;28;20041;-74
2022/11/21 05:35:24;;;;;;;2.40;1.27;;;11.70;99.90;;;;;;5046538;28;20056;-73
2022/11/21 05:37:57;;;;;;;2.00;1.00;;;11.70;99.90;;;;;;5053082;28;20040;-74
2022/11/21 05:40:25;;;;;;;0.77;0.68;;;11.60;99.90;;;;;;5061691;28;20052;-75
2022/11/21 05:45:39;;;;;;;1.45;1.02;;;11.40;99.90;;;;;;5047416;28;20453;-75
2022/11/21 05:48:06;;;;;;;4.30;1.70;;;11.50;99.90;;;;;;5055779;28;20040;-76
2022/11/21 05:50:35;;;;;;;9.25;1.95;;;11.60;99.90;;;;;;5062425;28;20040;-74
2022/11/21 05:53:06;;;;;;;2.72;1.27;;;11.60;99.90;;;;;;5046995;28;20151;-74
2022/11/21 05:55:33;;;;;;;3.72;1.33;;;11.50;99.90;;;;;;5062548;28;20544;-75
2022/11/21 05:58:01;;;;;;;1.85;1.08;;;11.50;99.90;;;;;;5058418;28;20082;-75
2022/11/21 06:00:29;;;;;;;2.30;0.95;;;11.40;99.90;;;;;;5048181;28;20056;-72
2022/11/21 06:05:42;;;;;;;1.83;1.13;;;11.30;99.90;;;;;;5065706;28;20052;-76
2022/11/21 06:08:10;;;;;;;2.38;1.27;;;11.40;99.90;;;;;;5067068;28;20411;-76
2022/11/21 06:10:37;;;;;;;2.25;1.20;;;11.60;99.90;;;;;;5054594;28;20041;-75
2022/11/21 06:13:20;;;;;;;2.85;1.48;;;11.80;99.90;;;;;;5067239;28;20379;-76
2022/11/21 06:15:55;;;;;;;3.38;1.50;;;11.90;99.90;;;;;;5067210;28;20071;-78
2022/11/21 06:18:23;;;;;;;2.88;1.70;;;12.10;99.90;;;;;;5064306;28;20052;-76
2022/11/21 06:20:51;;;;;;;3.83;1.40;;;12.10;99.90;;;;;;5020706;28;20083;-76
2022/11/21 06:23:19;;;;;;;2.17;1.40;;;12.30;99.90;;;;;;5029617;28;20487;-77
2022/11/21 06:25:46;;;;;;;3.03;1.70;;;12.40;99.90;;;;;;5051697;28;20086;-76
2022/11/21 06:28:14;;;;;;;2.78;1.38;;;12.80;99.90;;;;;;5033908;28;20066;-76
2022/11/21 06:30:41;;;;;;;5.50;1.80;;;13.10;99.90;;;;;;5050004;28;20045;-77
2022/11/21 06:33:09;;;;;;;4.72;2.70;;;13.30;99.90;;;;;;5034881;28;20048;-77
2022/11/21 06:35:37;;;;;;;3.35;1.67;;;13.40;99.90;;;;;;5047375;28;20570;-77
2022/11/21 06:38:05;;;;;;;5.53;3.25;;;14.30;99.90;;;;;;5017856;28;20503;-77
2022/11/21 06:40:33;;;;;;;8.73;4.40;;;15.60;99.90;;;;;;5029795;28;20080;-76
2022/11/21 06:43:00;;;;;;;8.90;3.97;;;16.70;99.90;;;;;;5030733;28;20702;-76
2022/11/21 06:45:28;;;;;;;4.53;3.40;;;16.90;99.90;;;;;;5034110;28;20164;-77
2022/11/21 06:47:56;;;;;;;2.47;1.60;;;16.50;99.90;;;;;;5050651;28;20090;-75
2022/11/21 06:50:23;;;;;;;5.90;2.08;;;15.90;99.90;;;;;;5050195;28;20048;-78
2022/11/21 06:52:51;;;;;;;4.10;1.30;;;15.90;99.90;;;;;;5049854;28;20135;-77
2022/11/21 06:55:20;;;;;;;2.15;1.75;;;16.40;99.90;;;;;;5048327;28;20162;-77
2022/11/21 06:57:47;;;;;;;4.80;1.05;;;17.20;99.90;;;;;;5030424;28;20051;-76
2022/11/21 07:00:15;;;;;;;2.80;1.42;;;17.60;99.90;;;;;;5014370;28;20057;-77
2022/11/21 07:02:43;;;;;;;2.28;1.00;;;17.60;99.90;;;;;;5013255;28;20057;-77
2022/11/21 07:05:10;;;;;;;2.22;1.30;;;18.00;99.90;;;;;;5031220;28;20119;-77
2022/11/21 07:07:38;;;;;;;3.38;1.13;;;18.80;99.90;;;;;;5029334;28;20415;-76
2022/11/21 07:10:06;;;;;;;3.55;1.10;;;19.80;99.90;;;;;;5014094;28;20049;-77
2022/11/21 07:15:20;;;;;;;2.70;1.60;;;21.40;99.50;;;;;;5034691;28;20498;-76
2022/11/21 07:17:47;;;;;;;5.40;1.23;;;21.80;98.80;;;;;;5053819;28;20048;-78
2022/11/21 07:20:15;;;;;;;2.67;1.60;;;21.40;98.70;;;;;;5053649;28;20053;-76
2022/11/21 07:22:42;;;;;;;4.25;1.30;;;20.70;99.10;;;;;;5037247;28;20091;-77
2022/11/21 07:25:10;;;;;;;3.15;1.50;;;19.50;99.70;;;;;;5036858;28;20223;-78
2022/11/21 07:27:37;;;;;;;3.05;1.38;;;18.70;99.90;;;;;;5037253;28;20091;-77
2022/11/21 07:30:05;;;;;;;2.83;1.25;;;18.40;99.90;;;;;;5037183;28;20511;-78
2022/11/21 07:32:33;;;;;;;2.88;1.73;;;18.40;99.90;;;;;;5053152;28;20090;-77
2022/11/21 07:35:01;;;;;;;5.50;1.40;;;18.60;99.90;;;;;;5051442;28;20048;-77
2022/11/21 07:37:29;;;;;;;2.72;1.77;;;18.90;99.90;;;;;;5050316;28;20807;-77
2022/11/21 07:39:56;;;;;;;2.00;1.00;;;19.20;99.90;;;;;;5049745;28;20139;-77
2022/11/21 07:42:24;;;;;;;5.80;1.30;;;19.20;99.90;;;;;;5069775;28;20044;-80
2022/11/21 07:44:51;;;;;;;4.00;1.20;;;19.20;99.90;;;;;;5053361;28;20048;-78
2022/11/21 07:47:19;;;;;;;3.10;1.33;;;19.40;99.90;;;;;;5069763;28;20090;-77
2022/11/21 07:49:46;;;;;;;3.80;1.33;;;19.50;99.90;;;;;;5036382;28;20137;-77
2022/11/21 07:52:14;;;;;;;4.88;2.72;;;19.80;99.90;;;;;;5036459;28;20426;-77
2022/11/21 07:54:41;;;;;;;3.13;1.50;;;20.20;99.90;;;;;;5053353;28;20084;-77
2022/11/21 07:57:09;;;;;;;3.72;2.08;;;20.30;99.70;;;;;;5046418;28;20049;-76
2022/11/21 07:59:37;;;;;;;5.15;2.13;;;20.10;99.80;;;;;;5033243;28;20052;-77
2022/11/21 08:02:04;;;;;;;7.63;2.70;;;19.80;99.90;;;;;;5033370;28;20524;-78
2022/11/21 08:04:32;;;;;;;4.03;2.28;;;19.40;99.90;;;;;;5049487;28;20079;-76
2022/11/21 08:07:00;;;;;;;3.45;2.00;;;19.30;99.90;;;;;;5064774;28;20398;-76
2022/11/21 08:09:28;;;;;;;7.88;2.50;;;18.80;99.90;;;;;;5036284;28;20128;-77
2022/11/21 08:11:56;;;;;;;5.30;2.45;;;18.60;99.90;;;;;;5036666;28;20052;-78
2022/11/21 08:14:23;;;;;;;5.47;2.30;;;18.10;99.90;;;;;;5036645;28;20681;-76
2022/11/21 08:16:51;;;;;;;7.85;2.67;;;18.00;99.90;;;;;;5069117;28;20843;-76
2022/11/21 08:19:19;;;;;;;5.07;2.45;;;17.90;99.90;;;;;;5052883;28;20556;-77
2022/11/21 08:21:46;;;;;;;5.97;2.60;;;17.80;99.90;;;;;;5069731;28;20051;-77
2022/11/21 08:24:16;;;;;;;5.47;2.40;;;17.50;99.90;;;;;;5052806;28;20045;-76
2022/11/21 08:26:45;;;;;;;6.25;2.53;;;17.20;99.90;;;;;;5023269;28;20158;-76
2022/11/21 08:29:16;;;;;;;4.28;2.28;;;17.00;99.90;;;;;;5016273;28;20041;-76
2022/11/21 08:31:44;;;;;;;4.95;2.42;;;17.20;99.90;;;;;;5033208;28;20041;-77
2022/11/21 08:34:12;;;;;;;5.25;2.50;;;17.40;99.90;;;;;;5042053;28;20581;-77
2022/11/21 08:36:40;;;;;;;8.18;2.40;;;17.50;99.90;;;;;;5060810;28;20515;-78
2022/11/21 08:39:08;;;;;;;2.63;1.60;;;17.80;99.90;;;;;;5069567;28;20075;-77
2022/11/21 08:44:22;;;;;;;5.72;2.05;;;18.10;99.90;;;;;;5048215;28;20363;-78
2022/11/21 08:46:50;;;;;;;2.88;2.25;;;18.30;99.90;;;;;;5034147;28;20397;-77
2022/11/21 08:49:17;;;;;;;3.88;2.20;;;18.40;99.90;;;;;;5052702;28;20045;-77
2022/11/21 08:51:48;;;;;;;2.72;1.60;;;18.50;99.90;;;;;;5035254;28;20148;-77
2022/11/21 08:54:20;;;;;;;5.47;2.13;;;18.40;99.90;;;;;;5049128;28;20048;-79
2022/11/21 08:56:49;;;;;;;7.18;1.92;;;18.50;99.90;;;;;;5032161;28;20147;-79
2022/11/21 08:59:17;;;;;;;3.40;1.42;;;18.70;99.90;;;;;;5033355;28;20064;-76
2022/11/21 09:01:44;;;;;;;4.32;2.03;;;19.00;99.90;;;;;;5032643;28;20143;-77
2022/11/21 09:04:12;;;;;;;2.38;1.40;;;19.30;99.90;;;;;;5049157;28;20151;-76
2022/11/21 09:06:39;;;;;;;3.42;1.77;;;19.30;99.30;;;;;;5043411;28;20087;-76
2022/11/21 09:09:07;;;;;;;3.55;2.08;;;19.50;99.90;;;;;;5068684;28;20045;-76
2022/11/21 09:11:36;;;;;;;3.72;1.92;;;19.70;99.90;;;;;;5035750;28;20052;-76
2022/11/21 09:19:35;;;;;;;5.33;2.20;;;20.10;99.90;;;;;;5051479;28;20586;-77
2022/11/21 09:22:03;;;;;;;5.28;2.72;;;20.20;99.50;;;;;;5068525;28;20048;-77
2022/11/21 09:24:30;;;;;;;7.80;3.65;;;20.20;99.70;;;;;;5035065;28;20040;-77
2022/11/21 09:26:58;;;;;;;7.03;2.30;;;20.30;99.00;;;;;;5061795;28;20068;-77
2022/11/21 09:29:26;;;;;;;3.95;1.65;;;20.20;99.50;;;;;;5032007;28;20045;-76
2022/11/21 09:31:53;;;;;;;2.70;1.83;;;20.10;99.50;;;;;;5049259;28;20049;-76
2022/11/21 09:34:21;;;;;;;3.97;1.10;;;20.10;99.50;;;;;;5015075;28;20098;-77
2022/11/21 09:36:49;;;;;;;2.13;1.30;;;20.20;98.70;;;;;;5037683;28;20506;-76
2022/11/21 09:39:16;;;;;;;1.73;1.40;;;20.50;98.50;;;;;;5051744;28;20435;-77
2022/11/21 09:42:05;;;;;;;4.63;1.95;;;20.80;98.20;;;;;;5067875;28;20143;-76
2022/11/21 09:44:51;;;;;;;2.30;1.30;;;21.10;98.20;;;;;;5051054;28;20079;-76
2022/11/21 09:47:31;;;;;;;6.20;2.10;;;21.00;97.60;;;;;;5051736;28;20080;-76
2022/11/21 09:50:00;;;;;;;5.68;2.15;;;20.80;97.90;;;;;;5031456;28;20056;-76
2022/11/21 09:52:34;;;;;;;6.72;1.58;;;20.70;98.10;;;;;;5030687;28;20044;-75
2022/11/21 09:55:06;;;;;;;3.10;1.30;;;20.30;97.60;;;;;;5031298;28;20143;-77
2022/11/21 09:57:35;;;;;;;6.47;2.28;;;19.90;98.30;;;;;;5047410;28;20048;-77
2022/11/21 10:00:11;;;;;;;7.00;1.73;;;19.60;97.70;;;;;;5063359;28;20048;-76
2022/11/21 10:02:40;;;;;;;5.03;1.77;;;19.30;99.00;;;;;;5047079;28;20051;-75
2022/11/21 10:05:13;;;;;;;3.33;1.60;;;19.20;99.40;;;;;;5047714;28;20505;-77
2022/11/21 10:07:41;;;;;;;5.97;2.13;;;19.00;99.90;;;;;;5047427;28;20422;-79
2022/11/21 10:10:34;;;;;;;7.40;2.10;;;18.90;99.80;;;;;;5050678;28;20048;-77
2022/11/21 10:13:16;;;;;;;6.28;1.77;;;18.80;99.00;;;;;;5062457;28;20449;-78
2022/11/21 10:15:49;;;;;;;4.95;2.05;;;18.80;98.60;;;;;;5047229;28;20041;-77
2022/11/21 10:19:11;;;;;;;4.93;1.60;;;18.80;99.00;;;;;;5029745;28;20181;-79
2022/11/21 10:22:01;;;;;;;3.70;1.95;;;18.80;98.40;;;;;;5014460;28;20523;-79
2022/11/21 10:24:41;;;;;;;4.93;1.40;;;19.00;98.80;;;;;;5048805;28;20070;-78
2022/11/21 10:27:17;;;;;;;3.20;1.75;;;18.90;98.90;;;;;;5032697;28;20149;-78
2022/11/21 10:29:53;;;;;;;2.67;1.40;;;18.70;98.80;;;;;;5043077;28;20073;-77
2022/11/21 10:32:50;;;;;;;;;;;18.40;99.20;;;;;;5028750;28;20164;-79
2022/11/21 10:35:22;;;;;;;2.08;1.30;;;18.20;99.10;;;;;;5043227;28;19920;-78
2022/11/21 10:37:53;;;;;;;5.57;1.83;;;18.10;99.70;;;;;;5036942;28;20033;-78
2022/11/21 10:40:23;;;;;;;1.50;1.10;;;18.00;99.90;;;;;;5045719;28;20076;-72
2022/11/21 10:46:04;;;;;;;4.78;1.48;;;17.80;99.90;;;;;;5056636;28;20060;-73
2022/11/21 10:48:32;;;;;;;2.20;1.65;;;17.90;99.90;;;;;;5062102;28;20052;-73
2022/11/21 10:51:29;;;;;;;2.58;1.40;;;18.00;99.90;;;;;;5070067;28;20080;-74
2022/11/21 10:54:54;;;;;;;2.33;1.58;;;18.20;99.90;;;;;;5061539;28;20037;-74
2022/11/21 10:57:17;;;;;;;2.33;1.50;;;18.30;99.90;;;;;;5057585;28;20040;-74
2022/11/21 11:00:11;;;;;;;2.38;1.13;;;18.30;99.90;;;;;;5052764;28;20533;-75
2022/11/21 11:02:59;;;;;;;3.20;1.80;;;18.50;99.90;;;;;;5019363;28;20152;-73
2022/11/21 11:05:31;;;;;;;2.17;1.10;;;18.50;99.50;;;;;;5048358;28;20044;-74
2022/11/21 11:08:05;;;;;;;2.78;1.70;;;18.60;99.30;;;;;;5033599;28;22013;-73
2022/11/21 11:10:39;;;;;;;3.17;1.48;;;18.80;99.60;;;;;;5060081;28;20124;-75
2022/11/21 11:16:14;;;;;;;2.20;1.50;;;18.70;99.00;;;;;;5051945;28;20079;-74
2022/11/21 11:19:04;;;;;;;1.50;1.10;;;18.80;99.50;;;;;;5024253;28;20056;-73
2022/11/21 11:21:40;;;;;;;3.58;1.30;;;18.60;98.70;;;;;;5032728;28;20049;-73
2022/11/21 11:24:11;;;;;;;3.15;1.65;;;18.60;97.80;;;;;;5050850;28;20101;-73
2022/11/21 11:26:48;;;;;;;2.75;1.85;;;18.70;99.30;;;;;;5051305;28;20599;-73
2022/11/21 11:29:19;;;;;;;2.22;1.35;;;18.90;99.10;;;;;;5025934;28;20060;-73
2022/11/21 11:32:25;;;;;;;3.60;1.85;;;18.80;99.30;;;;;;5067538;28;20086;-73
2022/11/21 11:35:03;;;;;;;3.05;1.75;;;19.10;99.70;;;;;;5055497;28;20102;-74
2022/11/21 11:37:39;;;;;;;3.22;1.40;;;19.20;98.70;;;;;;5068008;28;20060;-74
2022/11/21 11:40:27;;;;;;;2.78;1.38;;;18.90;99.20;;;;;;5028279;28;20056;-73
2022/11/21 11:53:10;;;;;;;4.45;1.50;;;18.10;99.90;;;;;;5035567;28;20055;-74
2022/11/21 11:55:59;;;;;;;5.28;1.75;;;18.10;99.50;;;;;;5068216;28;20127;-73
2022/11/21 11:59:01;;;;;;;4.55;2.20;;;18.10;99.90;;;;;;5047881;28;20056;-74
2022/11/21 12:01:43;;;;;;;3.85;1.95;;;18.30;99.90;;;;;;5050854;28;20056;-76
2022/11/21 12:04:14;;;;;;;6.43;2.58;;;18.50;99.90;;;;;;5063617;28;20048;-73
2022/11/21 12:07:06;;;;;;;3.88;1.90;;;18.70;99.90;;;;;;5062367;28;20044;-73
2022/11/21 12:10:01;;;;;;;2.92;1.80;;;18.80;99.90;;;;;;5066319;28;20040;-73
2022/11/21 12:12:36;;;;;;;4.00;1.88;;;19.00;99.90;;;;;;5060117;28;20436;-74
2022/11/21 12:15:49;;;;;;;2.92;1.90;;;18.90;99.80;;;;;;5067433;28;20059;-73
2022/11/21 12:18:18;;;;;;;7.68;4.68;;;18.80;99.60;;;;;;5067437;28;20127;-74
2022/11/21 12:20:48;;;;;;;9.38;5.25;;;18.70;99.30;;;;;;5051177;28;20143;-74
2022/11/21 12:23:17;;;;;;;10.95;6.88;;;18.70;99.10;;;;;;5063450;28;20488;-75
2022/11/21 12:26:17;;;;;;;7.50;5.68;;;18.60;99.30;;;;;;5067553;28;20064;-74
2022/11/21 12:29:12;;;;;;;6.68;4.05;;;18.50;99.20;;;;;;5047187;28;20120;-75
2022/11/21 12:31:42;;;;;;;2.95;2.15;;;18.40;99.50;;;;;;5050727;28;20383;-74
2022/11/21 12:34:21;;;;;;;2.90;1.60;;;18.50;99.40;;;;;;5067224;28;20052;-75
2022/11/21 12:36:57;;;;;;;2.25;1.40;;;18.60;99.40;;;;;;5050926;28;20114;-75
2022/11/21 12:39:52;;;;;;;5.78;2.72;;;18.60;99.20;;;;;;5064578;28;20076;-74
2022/11/21 12:42:49;;;;;;;6.13;4.07;;;18.60;99.70;;;;;;5069382;28;20554;-74
2022/11/21 12:45:27;;;;;;;4.65;3.25;;;18.80;99.40;;;;;;5065694;28;20525;-75
2022/11/21 12:54:30;;;;;;;8.13;4.65;;;18.70;99.30;;;;;;5081592;28;20123;-74
2022/11/21 12:57:08;;;;;;;6.57;3.40;;;18.60;99.60;;;;;;5048227;28;20048;-74
2022/11/21 12:59:55;;;;;;;6.00;4.53;;;18.50;99.00;;;;;;5051946;28;20094;-74
2022/11/21 13:02:40;;;;;;;5.38;3.45;;;18.40;98.90;;;;;;5030287;28;20079;-74
2022/11/21 13:05:12;;;;;;;3.85;2.28;;;18.30;99.20;;;;;;5051791;28;20427;-74
2022/11/21 13:07:40;;;;;;;6.50;4.07;;;18.30;99.50;;;;;;5038182;28;20082;-73
2022/11/21 13:10:14;;;;;;;5.93;2.38;;;18.20;99.90;;;;;;5052568;28;20102;-73
2022/11/21 13:13:00;;;;;;;3.10;1.92;;;18.10;99.80;;;;;;5054528;28;20048;-74
2022/11/21 13:15:32;;;;;;;4.10;1.73;;;18.10;98.80;;;;;;5049871;28;20048;-74
2022/11/21 13:18:18;;;;;;;3.90;2.00;;;18.20;99.00;;;;;;5049826;28;20070;-74
2022/11/21 13:20:51;;;;;;;5.10;2.40;;;18.20;99.00;;;;;;5031285;28;20044;-75
2022/11/21 13:23:39;;;;;;;3.40;2.22;;;18.10;99.70;;;;;;5049997;28;20058;-74
2022/11/21 13:26:25;;;;;;;5.70;2.30;;;18.00;99.40;;;;;;5068395;28;20040;-74
2022/11/21 13:29:10;;;;;;;4.00;1.70;;;18.10;99.70;;;;;;5070585;28;20080;-73
2022/11/21 13:31:39;;;;;;;4.10;2.33;;;18.00;99.50;;;;;;5064338;28;20340;-75
2022/11/21 13:34:33;;;;;;;3.97;1.63;;;18.00;99.90;;;;;;5069991;28;20428;-73
2022/11/21 13:37:00;;;;;;;2.65;1.77;;;17.90;99.80;;;;;;5050861;28;20068;-75
2022/11/21 13:39:31;;;;;;;10.90;3.97;;;17.90;99.60;;;;;;5069119;28;20050;-73
2022/11/21 13:44:50;;;;;;;4.53;1.73;;;17.70;99.80;;;;;;5065630;28;20051;-73
2022/11/21 13:47:42;;;;;;;2.60;1.50;;;17.70;99.50;;;;;;5033691;28;20495;-73
2022/11/21 13:51:01;;;;;;;3.20;1.20;;;17.60;99.20;;;;;;5068626;28;20036;-73
2022/11/21 13:53:49;;;;;;;4.07;1.45;;;17.40;99.90;;;;;;4971055;28;20133;-73
2022/11/21 13:56:47;;;;;;;5.32;2.80;;;17.40;99.90;;;;;;5050302;28;20073;-73
2022/11/21 13:59:27;;;;;;;4.80;2.33;;;17.30;99.90;;;;;;5084305;28;20055;-73
2022/11/21 14:02:13;;;;;;;3.60;1.90;;;17.10;99.90;;;;;;5079926;28;20487;-74